Huvudsida
METAR-TAF:

METAR-TAF

Flygplatser :

Bari-Paleses flygplats

Bari, Italien

latitud: 41-08N, longitud: 016-47E, höjd: 34 m

Aktuellt väderrapport

Denna rapport gjordes för 24 minuter sedan, klockan 14:20 UTC
Vind 8 kt från nord, varierande mellan nord/nordväst och nordost
Temperatur 29°C
Fuktighet 58%
Tryck 1019 hPa
Sikt 10 km eller mer
Inga moln under 1 500 m eller inga cumulonimbus

METAR: LIBD 261420Z 01008KT 330V050 CAVOK 29/20 Q1019

Tid: 16:44 (14:44 UTC)

Väderprognos

Denna rapport gjordes för 3 timmar och 44 minuter sedan, klockan 11:00 UTC
Prognos gäller från 26 kl. 12 UTC till 27 kl. 12 UTC
Vind 14 kt från nord/nordost
Sikt 10 km eller mer
Inga moln under 1 500 m eller inga cumulonimbus
Blir
från 26 kl. 19 UTC till 26 kl. 21 UTC
Vind 15 kt från nordväst
Blir
från 27 kl. 10 UTC till 27 kl. 12 UTC
Vind 10 kt från nord

TAF: LIBD 261100Z 2612/2712 02014KT CAVOK BECMG 2619/2621 31015KT BECMG 2710/2712 01010KT

Aktuella väderrapporter och prognoser från 4000 flygplatser (METAR- och TAF-rapporter).

De tillgängliga stationerna syns som gula och röda prickar på kartan.

För musen över prickarna för att se namnen på stationerna.

Klicka sedan för att få väderrapporter och prognoser.

För att ändra kartan: Klicka på de gröna knapparna med ett svart kors på för att zooma in; den gröna knappen med ett streck på för att zooma ut; eller på de gröna pilarna för angränsande kartor.


METAR-TAF: